Marrero, Louisiana
Current Conditions -  °F | °C
As of 4:35 AM on Monday 20 Oct 2014 (Local Time) from KVSH Reporting Station
Clear Clear  
Wind Chill: 66°   Ceiling: Unl
Heat Index: 66°   Visibility: 10mi
Dew Point: 54°   Wind: 5mph
Humidity: 64%   Direction: 50°NE
Pressure: 30.03"   Gusts: NA
Location:  29.9°N, 90.11°W
Report Text: KVSH 200935Z AUTO 05004KT 10SM CLR 19/12 A3003 RMK AO1
Loading
Personal Weather Stations






























Interactive Weather Map
Tropical Storm Tracking
New forecast layout! Learn more

10-Day Weather Forecast

Advertisements
Track Severe Weather on mobile